Time;durP1;ratioP1;P1;durP2;ratioP2;P2;SDS_P1;SDS_P2;PMS_P1;PMS_P2;Temp;Humidity;BMP_temperature;BMP_pressure;BME280_temperature;BME280_humidity;BME280_pressure;Samples;Min_cycle;Max_cycle;Signal;HPM_P1;HPM_P2
2023/04/12 00:00:58;;;;;;;8.80;2.97;;;10.60;99.90;;;;;;4995461;28;20029;-60
2023/04/12 00:03:25;;;;;;;9.00;2.22;;;10.60;99.90;;;;;;5012846;28;20496;-59
2023/04/12 00:05:53;;;;;;;5.57;2.20;;;10.60;99.90;;;;;;5012747;28;20045;-55
2023/04/12 00:08:25;;;;;;;9.15;2.20;;;10.60;99.90;;;;;;5012651;28;20034;-56
2023/04/12 00:10:51;;;;;;;7.25;2.20;;;10.60;99.90;;;;;;5012130;28;20022;-58
2023/04/12 00:13:17;;;;;;;8.15;2.92;;;10.60;99.90;;;;;;4994860;28;20533;-58
2023/04/12 00:15:43;;;;;;;9.25;2.20;;;10.60;99.90;;;;;;4994921;28;20018;-58
2023/04/12 00:18:08;;;;;;;10.23;3.42;;;10.50;99.90;;;;;;5012423;28;20030;-57
2023/04/12 00:20:34;;;;;;;8.43;2.65;;;10.50;99.90;;;;;;5012521;28;20091;-58
2023/04/12 00:22:59;;;;;;;4.55;2.22;;;10.50;99.90;;;;;;5012405;28;20053;-59
2023/04/12 00:25:25;;;;;;;6.93;2.58;;;10.40;99.90;;;;;;5012363;28;20026;-57
2023/04/12 00:27:50;;;;;;;5.57;2.83;;;10.40;99.90;;;;;;5012377;28;20022;-59
2023/04/12 00:30:16;;;;;;;11.90;2.92;;;10.40;99.90;;;;;;5012818;28;20029;-59
2023/04/12 00:32:42;;;;;;;8.27;2.80;;;10.40;99.90;;;;;;5013420;28;20026;-59
2023/04/12 00:35:08;;;;;;;8.95;4.18;;;10.30;99.90;;;;;;5012531;28;20500;-59
2023/04/12 00:37:35;;;;;;;10.10;2.65;;;10.20;99.90;;;;;;5012419;28;20026;-58
2023/04/12 00:40:01;;;;;;;5.57;2.60;;;10.20;99.90;;;;;;5012359;28;20485;-57
2023/04/12 00:42:26;;;;;;;13.90;2.85;;;10.10;99.90;;;;;;5012266;28;20036;-57
2023/04/12 00:44:52;;;;;;;9.63;2.65;;;10.10;99.90;;;;;;5012199;28;20026;-58
2023/04/12 00:47:18;;;;;;;7.45;2.58;;;10.00;99.90;;;;;;5012083;28;20034;-59
2023/04/12 00:49:43;;;;;;;5.90;2.08;;;9.90;99.90;;;;;;5011798;28;20026;-57
2023/04/12 00:52:13;;;;;;;9.32;2.75;;;9.90;99.90;;;;;;4994135;28;20500;-59
2023/04/12 00:54:40;;;;;;;6.43;2.78;;;9.90;99.90;;;;;;5011971;28;20021;-57
2023/04/12 00:57:06;;;;;;;6.13;2.53;;;9.90;99.90;;;;;;5012199;28;20065;-59
2023/04/12 00:59:31;;;;;;;14.82;3.95;;;9.80;99.90;;;;;;5012167;28;20407;-57
2023/04/12 01:01:58;;;;;;;8.95;2.90;;;9.90;99.90;;;;;;5012019;28;20524;-59
2023/04/12 01:04:27;;;;;;;9.18;2.58;;;9.80;99.90;;;;;;5012099;28;20382;-56
2023/04/12 01:07:02;;;;;;;10.60;2.95;;;9.80;99.90;;;;;;5012962;28;20030;-57
2023/04/12 01:09:35;;;;;;;6.78;2.58;;;9.80;99.90;;;;;;5012602;28;20076;-58
2023/04/12 01:12:25;;;;;;;9.98;2.47;;;9.80;99.90;;;;;;5012006;28;20080;-60
2023/04/12 01:15:04;;;;;;;12.63;2.33;;;9.80;99.90;;;;;;5011656;28;20044;-57
2023/04/12 01:17:36;;;;;;;4.90;2.58;;;9.80;99.90;;;;;;5011895;28;20037;-59
2023/04/12 01:20:13;;;;;;;5.85;2.55;;;9.60;99.90;;;;;;5011612;28;20030;-59
2023/04/12 01:22:48;;;;;;;8.63;2.45;;;9.60;99.90;;;;;;5011842;28;20034;-60
2023/04/12 01:25:22;;;;;;;6.00;2.60;;;9.60;99.90;;;;;;4997973;28;20482;-59
2023/04/12 01:27:51;;;;;;;5.80;2.83;;;9.50;99.90;;;;;;5015534;28;20368;-58
2023/04/12 01:30:18;;;;;;;6.93;2.10;;;9.50;99.90;;;;;;5015867;28;20421;-59
2023/04/12 01:32:49;;;;;;;7.90;2.55;;;9.50;99.90;;;;;;5015499;28;20054;-59
2023/04/12 01:35:20;;;;;;;9.98;2.42;;;9.50;99.90;;;;;;5015350;28;20034;-58
2023/04/12 01:37:46;;;;;;;7.60;3.10;;;9.50;99.90;;;;;;5015636;28;20177;-59
2023/04/12 01:40:12;;;;;;;4.28;2.38;;;9.50;99.90;;;;;;5015345;28;20465;-60
2023/04/12 01:42:38;;;;;;;4.50;2.38;;;9.40;99.90;;;;;;5015303;28;20029;-60
2023/04/12 01:45:05;;;;;;;7.22;2.85;;;9.40;99.90;;;;;;5015396;28;20034;-58
2023/04/12 01:47:34;;;;;;;7.63;2.30;;;9.40;99.90;;;;;;5015364;28;20057;-57
2023/04/12 01:50:17;;;;;;;8.85;2.88;;;9.30;99.90;;;;;;5014932;28;20033;-59
2023/04/12 01:52:52;;;;;;;8.10;2.88;;;9.40;99.90;;;;;;5015157;28;20100;-59
2023/04/12 01:55:21;;;;;;;6.65;2.60;;;9.30;99.90;;;;;;4997550;28;20022;-59
2023/04/12 01:57:48;;;;;;;6.28;2.50;;;9.20;99.90;;;;;;5015239;28;20057;-59
2023/04/12 02:00:15;;;;;;;5.70;2.25;;;9.20;99.90;;;;;;4997545;28;20038;-59
2023/04/12 02:02:42;;;;;;;3.95;2.97;;;9.20;99.90;;;;;;4997228;28;20417;-58
2023/04/12 02:05:09;;;;;;;7.95;3.17;;;9.00;99.90;;;;;;5014837;28;20105;-59
2023/04/12 02:07:36;;;;;;;7.30;2.75;;;9.10;99.90;;;;;;4997267;28;20073;-59
2023/04/12 02:10:01;;;;;;;12.27;3.33;;;9.10;99.90;;;;;;5015067;28;20477;-58
2023/04/12 02:12:27;;;;;;;8.60;3.72;;;9.10;99.90;;;;;;4997243;28;20032;-59
2023/04/12 02:14:52;;;;;;;7.30;2.50;;;9.00;99.90;;;;;;5014820;28;20029;-57
2023/04/12 02:17:18;;;;;;;4.32;2.55;;;9.00;99.90;;;;;;5014769;28;20026;-59
2023/04/12 02:19:44;;;;;;;9.13;2.78;;;9.00;99.90;;;;;;5014475;28;20018;-59
2023/04/12 02:22:10;;;;;;;8.00;3.00;;;9.00;99.90;;;;;;4997157;28;20654;-59
2023/04/12 02:24:35;;;;;;;10.60;2.88;;;9.00;99.90;;;;;;4996840;28;20026;-57
2023/04/12 02:27:01;;;;;;;6.30;3.10;;;9.00;99.90;;;;;;5014435;28;20512;-58
2023/04/12 02:29:26;;;;;;;9.70;3.35;;;9.00;99.90;;;;;;5014521;28;20037;-59
2023/04/12 02:31:52;;;;;;;9.38;3.47;;;9.00;99.90;;;;;;4996908;28;20049;-59
2023/04/12 02:34:18;;;;;;;11.10;3.95;;;9.00;99.90;;;;;;5013568;28;20030;-57
2023/04/12 02:36:47;;;;;;;6.82;3.63;;;9.00;99.90;;;;;;5014327;28;20037;-58
2023/04/12 02:39:13;;;;;;;9.90;4.00;;;8.90;99.90;;;;;;5014239;28;20547;-59
2023/04/12 02:41:39;;;;;;;8.25;4.40;;;8.90;99.90;;;;;;5014430;28;20026;-60
2023/04/12 02:44:04;;;;;;;8.02;3.45;;;8.80;99.90;;;;;;5014127;28;20389;-59
2023/04/12 02:46:30;;;;;;;10.82;4.35;;;8.70;99.90;;;;;;5014185;28;20477;-59
2023/04/12 02:48:55;;;;;;;12.07;4.00;;;8.70;99.90;;;;;;5013651;28;20022;-60
2023/04/12 02:51:21;;;;;;;10.77;4.20;;;8.60;99.90;;;;;;5014147;28;20028;-57
2023/04/12 02:53:46;;;;;;;7.50;3.92;;;8.60;99.90;;;;;;5013931;28;20149;-59
2023/04/12 02:56:12;;;;;;;12.00;3.75;;;8.50;99.90;;;;;;5013981;28;20030;-56
2023/04/12 02:58:38;;;;;;;6.57;4.63;;;8.60;99.90;;;;;;5014406;28;20026;-57
2023/04/12 03:01:06;;;;;;;9.60;4.32;;;8.50;99.90;;;;;;5014096;28;20036;-58
2023/04/12 03:03:36;;;;;;;9.38;3.90;;;8.50;99.90;;;;;;4996195;28;20057;-58
2023/04/12 03:06:02;;;;;;;11.88;4.20;;;8.50;99.90;;;;;;5013842;28;20029;-58
2023/04/12 03:08:27;;;;;;;10.90;4.20;;;8.50;99.90;;;;;;4995962;28;20083;-59
2023/04/12 03:10:53;;;;;;;8.85;3.90;;;8.40;99.90;;;;;;4996080;28;20018;-57
2023/04/12 03:13:18;;;;;;;9.77;4.45;;;8.40;99.90;;;;;;4995941;28;20402;-58
2023/04/12 03:15:45;;;;;;;9.07;3.13;;;8.40;99.90;;;;;;5013751;28;20057;-58
2023/04/12 03:18:11;;;;;;;10.13;3.60;;;8.40;99.90;;;;;;4995904;28;20030;-58
2023/04/12 03:20:38;;;;;;;8.65;4.38;;;8.40;99.90;;;;;;4996054;28;20121;-59
2023/04/12 03:23:04;;;;;;;15.48;5.07;;;8.40;99.90;;;;;;5013391;28;20105;-58
2023/04/12 03:25:30;;;;;;;14.32;3.92;;;8.40;99.90;;;;;;5013195;28;20046;-58
2023/04/12 03:27:55;;;;;;;10.38;4.13;;;8.40;99.90;;;;;;5013384;28;20026;-59
2023/04/12 03:30:21;;;;;;;11.18;3.45;;;8.40;99.90;;;;;;5013335;28;20500;-54
2023/04/12 03:32:46;;;;;;;9.75;3.85;;;8.40;99.90;;;;;;5013236;28;20030;-58
2023/04/12 03:35:12;;;;;;;7.10;3.35;;;8.40;99.90;;;;;;5013213;28;20070;-56
2023/04/12 03:37:41;;;;;;;8.18;4.20;;;8.40;99.90;;;;;;5013445;28;20026;-59
2023/04/12 03:40:07;;;;;;;6.75;3.90;;;8.40;99.90;;;;;;5013043;28;20397;-59
2023/04/12 03:42:32;;;;;;;5.57;3.97;;;8.40;99.90;;;;;;4995368;28;20037;-59
2023/04/12 03:44:58;;;;;;;11.60;4.68;;;8.40;99.90;;;;;;5012695;28;20034;-60
2023/04/12 03:47:23;;;;;;;5.68;3.60;;;8.40;99.90;;;;;;5012391;28;20042;-57
2023/04/12 03:49:49;;;;;;;10.48;4.88;;;8.30;99.90;;;;;;5012659;28;20049;-58
2023/04/12 03:52:15;;;;;;;10.55;3.95;;;8.40;99.90;;;;;;5012851;28;20021;-58
2023/04/12 03:54:40;;;;;;;13.63;4.47;;;8.40;99.90;;;;;;4995398;28;20030;-57
2023/04/12 03:57:06;;;;;;;7.07;4.15;;;8.40;99.90;;;;;;5012864;28;20441;-56
2023/04/12 03:59:31;;;;;;;7.07;3.97;;;8.40;99.90;;;;;;4995061;28;20071;-58
2023/04/12 04:02:01;;;;;;;6.03;4.25;;;8.40;99.90;;;;;;4995204;28;20038;-57
2023/04/12 04:04:27;;;;;;;10.52;4.60;;;8.40;99.90;;;;;;5012799;28;20109;-59
2023/04/12 04:06:53;;;;;;;9.10;4.60;;;8.40;99.90;;;;;;4994821;28;20480;-59
2023/04/12 04:09:19;;;;;;;11.40;5.75;;;8.40;99.90;;;;;;5012598;28;20088;-57
2023/04/12 04:11:45;;;;;;;11.52;5.40;;;8.40;99.90;;;;;;5012637;28;20038;-59
2023/04/12 04:14:11;;;;;;;11.23;5.05;;;8.40;99.90;;;;;;5012475;28;20022;-58
2023/04/12 04:16:37;;;;;;;10.25;4.40;;;8.40;99.90;;;;;;5012557;28;20371;-59
2023/04/12 04:19:02;;;;;;;9.63;4.13;;;8.30;99.90;;;;;;5012565;28;20025;-59
2023/04/12 04:21:31;;;;;;;6.70;3.22;;;8.40;99.90;;;;;;5012406;28;20037;-58
2023/04/12 04:23:59;;;;;;;7.55;3.88;;;8.40;99.90;;;;;;5012338;28;20026;-59
2023/04/12 04:26:31;;;;;;;6.03;3.17;;;8.30;99.90;;;;;;4994643;28;20022;-57
2023/04/12 04:29:00;;;;;;;7.57;3.05;;;8.30;99.90;;;;;;4994570;28;20028;-56
2023/04/12 04:31:32;;;;;;;7.78;2.90;;;8.30;99.90;;;;;;5012285;28;20067;-58
2023/04/12 04:33:59;;;;;;;5.82;3.60;;;8.30;99.90;;;;;;5012108;28;20041;-60
2023/04/12 04:36:25;;;;;;;4.43;2.78;;;8.30;99.90;;;;;;4994336;28;20065;-58
2023/04/12 04:38:50;;;;;;;9.75;2.97;;;8.30;99.90;;;;;;5012137;28;20024;-56
2023/04/12 04:41:21;;;;;;;7.85;2.60;;;8.30;99.90;;;;;;5012384;28;20022;-57
2023/04/12 04:43:48;;;;;;;7.10;2.70;;;8.30;99.90;;;;;;5012060;28;20046;-58
2023/04/12 04:46:13;;;;;;;7.72;3.80;;;8.40;99.90;;;;;;5011955;28;20032;-54
2023/04/12 04:48:40;;;;;;;6.45;2.40;;;8.40;99.90;;;;;;5011888;28;20038;-56
2023/04/12 04:51:05;;;;;;;4.18;2.38;;;8.40;99.90;;;;;;5012753;28;20040;-58
2023/04/12 04:53:31;;;;;;;6.07;3.05;;;8.40;99.90;;;;;;4994535;28;20096;-57
2023/04/12 04:55:58;;;;;;;8.18;2.30;;;8.40;99.90;;;;;;5013269;28;20312;-58
2023/04/12 04:58:23;;;;;;;6.68;2.10;;;8.40;99.90;;;;;;4993982;28;20034;-58
2023/04/12 05:00:49;;;;;;;4.18;2.05;;;8.40;99.90;;;;;;5012024;28;20074;-58
2023/04/12 05:03:14;;;;;;;7.13;3.03;;;8.40;99.90;;;;;;5011826;28;20037;-59
2023/04/12 05:05:40;;;;;;;6.65;2.13;;;8.40;99.90;;;;;;5011596;28;20034;-58
2023/04/12 05:08:06;;;;;;;9.30;2.30;;;8.40;99.90;;;;;;5011592;28;20033;-58
2023/04/12 05:10:31;;;;;;;4.88;2.65;;;8.40;99.90;;;;;;5011968;28;20026;-59
2023/04/12 05:12:57;;;;;;;7.18;2.90;;;8.40;99.90;;;;;;4993874;28;20120;-58
2023/04/12 05:15:22;;;;;;;3.20;2.80;;;8.40;99.90;;;;;;5011488;28;20037;-54
2023/04/12 05:17:47;;;;;;;3.22;2.22;;;8.40;99.90;;;;;;4994199;28;20029;-58
2023/04/12 05:20:13;;;;;;;7.10;2.08;;;8.40;99.90;;;;;;4993828;28;20026;-57
2023/04/12 05:22:39;;;;;;;5.00;1.98;;;8.40;99.90;;;;;;5011533;28;20026;-57
2023/04/12 05:25:05;;;;;;;3.05;1.77;;;8.40;99.90;;;;;;5011583;28;20489;-57
2023/04/12 05:27:30;;;;;;;5.38;2.20;;;8.40;99.90;;;;;;5011502;28;20057;-58
2023/04/12 05:29:56;;;;;;;5.72;2.63;;;8.40;99.90;;;;;;5011533;28;20507;-58
2023/04/12 05:32:23;;;;;;;5.25;1.88;;;8.30;99.90;;;;;;5011637;28;20033;-56
2023/04/12 05:34:49;;;;;;;6.57;2.17;;;8.40;99.90;;;;;;5011313;28;20022;-58
2023/04/12 05:37:14;;;;;;;3.22;2.00;;;8.40;99.90;;;;;;5011893;28;20044;-58
2023/04/12 05:39:40;;;;;;;3.40;1.73;;;8.40;99.90;;;;;;5012713;28;20026;-60
2023/04/12 05:42:05;;;;;;;5.65;1.80;;;8.40;99.90;;;;;;5011725;28;20036;-61
2023/04/12 05:44:34;;;;;;;3.33;1.77;;;8.40;99.90;;;;;;5011231;28;20032;-60
2023/04/12 05:46:59;;;;;;;3.15;2.22;;;8.40;99.90;;;;;;5011594;28;20022;-59
2023/04/12 05:49:29;;;;;;;3.17;1.83;;;8.40;99.90;;;;;;5011213;28;20068;-61
2023/04/12 05:51:54;;;;;;;2.70;1.75;;;8.40;99.90;;;;;;5011461;28;20072;-59
2023/04/12 05:54:20;;;;;;;6.85;2.28;;;8.40;99.90;;;;;;5011219;28;20034;-58
2023/04/12 05:56:46;;;;;;;2.97;1.92;;;8.40;99.90;;;;;;5011227;28;20474;-58
2023/04/12 05:59:11;;;;;;;2.47;2.20;;;8.40;99.90;;;;;;5011463;28;20026;-58
2023/04/12 06:01:41;;;;;;;3.17;1.60;;;8.40;99.90;;;;;;5011251;28;20450;-61
2023/04/12 06:04:07;;;;;;;3.53;1.33;;;8.40;99.90;;;;;;5011224;28;20020;-61
2023/04/12 06:06:33;;;;;;;3.63;1.52;;;8.40;99.90;;;;;;5011148;28;20026;-61
2023/04/12 06:09:01;;;;;;;2.95;1.45;;;8.40;99.90;;;;;;5011596;28;20041;-59
2023/04/12 06:11:27;;;;;;;2.53;1.30;;;8.40;99.90;;;;;;4997223;28;20082;-61
2023/04/12 06:13:53;;;;;;;3.55;1.88;;;8.30;99.90;;;;;;5014776;28;20021;-58
2023/04/12 06:16:18;;;;;;;2.60;1.65;;;8.40;99.90;;;;;;5014736;28;20026;-59
2023/04/12 06:18:44;;;;;;;1.55;1.45;;;8.40;99.90;;;;;;5014734;28;20075;-60
2023/04/12 06:21:10;;;;;;;1.42;1.33;;;8.40;99.90;;;;;;5014881;28;20385;-59
2023/04/12 06:23:35;;;;;;;5.28;1.50;;;8.40;99.90;;;;;;5014579;28;20026;-60
2023/04/12 06:26:01;;;;;;;3.38;1.25;;;8.40;99.90;;;;;;5014686;28;20559;-62
2023/04/12 06:28:26;;;;;;;3.38;1.60;;;8.50;99.90;;;;;;5014456;28;20030;-58
2023/04/12 06:30:52;;;;;;;2.22;1.70;;;8.50;99.90;;;;;;5014793;28;20021;-61
2023/04/12 06:33:21;;;;;;;1.48;1.33;;;8.50;99.90;;;;;;5014483;28;20053;-60
2023/04/12 06:35:46;;;;;;;2.55;1.27;;;8.40;99.90;;;;;;5014278;28;20413;-61
2023/04/12 06:38:12;;;;;;;3.35;1.63;;;8.50;99.90;;;;;;5014548;28;20026;-62
2023/04/12 06:40:38;;;;;;;2.28;1.52;;;8.50;99.90;;;;;;5014487;28;20037;-61
2023/04/12 06:43:03;;;;;;;2.40;2.17;;;8.50;99.90;;;;;;4996752;28;20026;-59
2023/04/12 06:45:29;;;;;;;1.75;1.65;;;8.60;99.90;;;;;;5014750;28;20517;-59
2023/04/12 06:47:55;;;;;;;2.33;2.13;;;8.60;99.90;;;;;;4996709;28;20026;-59
2023/04/12 06:50:21;;;;;;;2.28;1.52;;;8.60;99.90;;;;;;5013965;28;20022;-59
2023/04/12 06:52:47;;;;;;;2.25;1.38;;;8.60;99.90;;;;;;5013917;28;20022;-57
2023/04/12 06:55:13;;;;;;;3.45;2.03;;;8.60;99.90;;;;;;4996303;28;20026;-58
2023/04/12 06:57:41;;;;;;;2.75;1.65;;;8.60;99.90;;;;;;5013981;28;20030;-61
2023/04/12 07:00:07;;;;;;;2.38;1.95;;;8.60;99.90;;;;;;5013917;28;20030;-58
2023/04/12 07:02:33;;;;;;;2.85;1.80;;;8.60;99.90;;;;;;5013740;28;20036;-60
2023/04/12 07:04:59;;;;;;;2.05;1.25;;;8.60;99.90;;;;;;5013867;28;20026;-61
2023/04/12 07:07:24;;;;;;;9.70;1.80;;;8.70;99.90;;;;;;5014004;28;20030;-57
2023/04/12 07:09:51;;;;;;;3.17;2.17;;;8.70;99.90;;;;;;5013858;28;20022;-58
2023/04/12 07:12:16;;;;;;;4.20;1.83;;;8.70;99.90;;;;;;4996202;28;20026;-60
2023/04/12 07:14:42;;;;;;;2.72;1.65;;;8.80;99.90;;;;;;4992617;28;20033;-61
2023/04/12 07:17:07;;;;;;;5.82;2.30;;;8.90;99.90;;;;;;5017515;28;20507;-60
2023/04/12 07:19:33;;;;;;;1.88;1.60;;;8.90;99.90;;;;;;4996269;28;20030;-60
2023/04/12 07:21:59;;;;;;;3.83;1.63;;;8.90;99.90;;;;;;4996089;28;20522;-59
2023/04/12 07:24:24;;;;;;;5.55;2.38;;;8.90;99.90;;;;;;5013283;28;20392;-56
2023/04/12 07:26:53;;;;;;;3.17;1.92;;;8.90;99.90;;;;;;5013518;28;20125;-50
2023/04/12 07:29:18;;;;;;;1.90;1.63;;;8.90;99.90;;;;;;5013527;28;20076;-50
2023/04/12 07:31:44;;;;;;;5.05;2.10;;;9.00;99.90;;;;;;5010725;28;20549;-57
2023/04/12 07:34:10;;;;;;;5.97;1.92;;;9.00;99.90;;;;;;5012682;28;20075;-61
2023/04/12 07:36:35;;;;;;;6.03;2.08;;;9.00;99.90;;;;;;5012910;28;20030;-58
2023/04/12 07:39:01;;;;;;;2.50;2.15;;;9.10;99.90;;;;;;5013983;28;20540;-60
2023/04/12 07:41:27;;;;;;;3.20;1.70;;;9.10;99.90;;;;;;5013427;28;20034;-59
2023/04/12 07:43:53;;;;;;;2.47;1.80;;;9.20;99.90;;;;;;5012863;28;20026;-53
2023/04/12 07:46:19;;;;;;;2.75;2.42;;;9.20;99.90;;;;;;5012724;28;20022;-57
2023/04/12 07:48:45;;;;;;;3.78;2.47;;;9.20;99.90;;;;;;5012525;28;20044;-57
2023/04/12 07:51:11;;;;;;;4.53;2.05;;;9.30;99.90;;;;;;5012627;28;20022;-57
2023/04/12 07:53:37;;;;;;;2.92;1.75;;;9.30;99.90;;;;;;5012033;28;20021;-55
2023/04/12 07:56:05;;;;;;;4.53;1.90;;;9.30;99.90;;;;;;5012688;28;20017;-53
2023/04/12 07:58:31;;;;;;;9.20;2.28;;;9.30;99.90;;;;;;4991686;28;20033;-58
2023/04/12 08:00:57;;;;;;;2.58;2.00;;;9.40;99.90;;;;;;4992812;28;20109;-53
2023/04/12 08:03:23;;;;;;;4.30;2.47;;;9.40;99.90;;;;;;4992796;28;20102;-58
2023/04/12 08:05:52;;;;;;;4.93;2.72;;;9.40;99.90;;;;;;5010433;28;20045;-52
2023/04/12 08:08:18;;;;;;;2.30;2.00;;;9.40;99.90;;;;;;5012064;28;20033;-56
2023/04/12 08:10:44;;;;;;;3.20;2.67;;;9.40;99.90;;;;;;4994979;28;20494;-56
2023/04/12 08:13:09;;;;;;;2.83;1.88;;;9.40;99.90;;;;;;5012524;28;20064;-54
2023/04/12 08:15:35;;;;;;;4.32;2.17;;;9.40;99.90;;;;;;5012329;28;20026;-55
2023/04/12 08:18:01;;;;;;;2.70;1.92;;;9.50;99.90;;;;;;5012408;28;20451;-58
2023/04/12 08:20:27;;;;;;;5.60;2.78;;;9.50;99.90;;;;;;5004947;28;20405;-58
2023/04/12 08:22:53;;;;;;;6.47;2.30;;;9.50;99.90;;;;;;5006076;28;20504;-55
2023/04/12 08:25:19;;;;;;;3.75;2.00;;;9.50;99.90;;;;;;5005057;28;20547;-58
2023/04/12 08:27:45;;;;;;;3.45;2.53;;;9.60;99.90;;;;;;5009811;28;20152;-54
2023/04/12 08:30:12;;;;;;;4.97;1.98;;;9.60;99.90;;;;;;4991458;28;20097;-57
2023/04/12 08:32:37;;;;;;;6.55;2.53;;;9.60;99.90;;;;;;4992469;28;20025;-57
2023/04/12 08:35:04;;;;;;;8.02;1.98;;;9.60;99.90;;;;;;4991013;28;20027;-57
2023/04/12 08:37:30;;;;;;;3.80;2.50;;;9.60;99.90;;;;;;4999713;28;20034;-61
2023/04/12 08:39:57;;;;;;;2.33;2.10;;;9.70;99.90;;;;;;5010838;28;20021;-59
2023/04/12 08:42:23;;;;;;;5.40;2.22;;;9.70;99.90;;;;;;5010710;28;20033;-60
2023/04/12 08:44:50;;;;;;;4.25;2.40;;;9.70;99.90;;;;;;5010322;28;20067;-55
2023/04/12 08:47:15;;;;;;;6.70;2.63;;;9.70;99.90;;;;;;5011011;28;20022;-47
2023/04/12 08:49:41;;;;;;;5.72;2.50;;;9.80;99.90;;;;;;5010620;28;20459;-61
2023/04/12 08:52:09;;;;;;;5.68;3.20;;;9.90;99.90;;;;;;4992149;28;20025;-61
2023/04/12 08:54:36;;;;;;;5.57;2.13;;;9.80;99.90;;;;;;5010626;28;20072;-60
2023/04/12 08:57:05;;;;;;;4.90;2.30;;;9.80;99.90;;;;;;4992813;28;20022;-62
2023/04/12 08:59:32;;;;;;;5.68;2.70;;;9.90;99.90;;;;;;5010666;28;20018;-55
2023/04/12 09:01:58;;;;;;;8.32;2.90;;;9.90;99.90;;;;;;5010464;28;20401;-56
2023/04/12 09:04:28;;;;;;;4.57;2.30;;;10.00;99.90;;;;;;5010315;28;20018;-53
2023/04/12 09:06:54;;;;;;;3.35;2.30;;;10.00;99.90;;;;;;5010319;28;20724;-60
2023/04/12 09:09:39;;;;;;;3.08;2.45;;;10.10;99.90;;;;;;5010591;28;20076;-63
2023/04/12 09:12:08;;;;;;;5.35;2.78;;;10.20;99.90;;;;;;5010434;28;20033;-57
2023/04/12 09:14:34;;;;;;;5.25;2.53;;;10.30;99.90;;;;;;5010514;28;20026;-54
2023/04/12 09:17:00;;;;;;;4.90;2.67;;;10.40;99.90;;;;;;5005129;28;20045;-55
2023/04/12 09:19:33;;;;;;;2.55;2.15;;;10.50;99.90;;;;;;4990649;28;20029;-58
2023/04/12 09:21:58;;;;;;;5.40;2.65;;;10.50;99.90;;;;;;4996987;28;20026;-57
2023/04/12 09:24:24;;;;;;;3.00;2.60;;;10.50;99.90;;;;;;5010190;28;20018;-63
2023/04/12 09:27:03;;;;;;;8.02;2.35;;;10.50;99.90;;;;;;4992331;28;20026;-55
2023/04/12 09:29:30;;;;;;;4.68;2.85;;;10.50;99.90;;;;;;5010239;28;20026;-56
2023/04/12 09:32:06;;;;;;;2.88;2.67;;;10.40;99.90;;;;;;5010320;28;20485;-56
2023/04/12 09:34:37;;;;;;;7.13;3.25;;;10.50;99.90;;;;;;5010066;28;20030;-57
2023/04/12 09:37:13;;;;;;;8.32;3.13;;;10.50;99.90;;;;;;4992812;28;20041;-56
2023/04/12 09:39:39;;;;;;;6.15;3.38;;;10.60;99.90;;;;;;5010002;28;20421;-55
2023/04/12 09:42:09;;;;;;;6.20;3.47;;;10.60;99.90;;;;;;5010431;28;20232;-59
2023/04/12 09:44:35;;;;;;;5.13;2.92;;;10.60;99.90;;;;;;5012045;28;20037;-59
2023/04/12 09:47:03;;;;;;;6.45;3.67;;;10.70;99.90;;;;;;5013895;28;20017;-57
2023/04/12 09:49:39;;;;;;;4.50;2.67;;;10.70;99.90;;;;;;5013989;28;20073;-54
2023/04/12 09:52:09;;;;;;;8.18;3.53;;;10.80;99.90;;;;;;5014564;28;20438;-58
2023/04/12 09:54:49;;;;;;;8.02;3.50;;;10.70;99.90;;;;;;5013967;28;20504;-57
2023/04/12 09:57:20;;;;;;;4.13;3.40;;;10.70;99.90;;;;;;5014278;28;20037;-58
2023/04/12 09:59:51;;;;;;;5.75;3.78;;;10.70;99.90;;;;;;5013702;28;20104;-60
2023/04/12 10:02:21;;;;;;;7.07;4.05;;;10.70;99.90;;;;;;5015101;28;20125;-57
2023/04/12 10:04:47;;;;;;;6.97;3.92;;;10.70;99.90;;;;;;5014789;28;20021;-59
2023/04/12 10:07:14;;;;;;;7.68;3.28;;;10.70;99.90;;;;;;5014959;28;20037;-61
2023/04/12 10:09:40;;;;;;;8.75;4.22;;;10.70;99.90;;;;;;4998301;28;20022;-61
2023/04/12 10:12:07;;;;;;;9.52;4.00;;;10.70;99.90;;;;;;5014378;28;20022;-62
2023/04/12 10:14:33;;;;;;;7.95;4.70;;;10.70;99.90;;;;;;5015553;28;20042;-61
2023/04/12 10:17:00;;;;;;;19.85;8.55;;;10.70;99.90;;;;;;5014463;28;20394;-59
2023/04/12 10:19:28;;;;;;;11.60;7.18;;;10.70;99.90;;;;;;5014716;28;20026;-58
2023/04/12 10:21:58;;;;;;;5.93;3.92;;;10.80;99.90;;;;;;5016587;28;20113;-61
2023/04/12 10:24:25;;;;;;;9.85;4.82;;;10.90;99.90;;;;;;5014337;28;20026;-60
2023/04/12 10:26:52;;;;;;;7.43;4.40;;;10.90;99.90;;;;;;5013893;28;20587;-56
2023/04/12 10:29:33;;;;;;;9.75;5.25;;;10.90;99.90;;;;;;4996831;28;20034;-58
2023/04/12 10:32:19;;;;;;;8.45;4.93;;;11.00;99.90;;;;;;5014553;28;20490;-58
2023/04/12 10:34:49;;;;;;;14.18;5.47;;;11.00;99.90;;;;;;5018667;28;20026;-59
2023/04/12 10:37:15;;;;;;;9.15;4.57;;;11.00;99.90;;;;;;5026267;28;20140;-55
2023/04/12 10:39:43;;;;;;;6.57;5.10;;;11.00;99.90;;;;;;5022011;28;20061;-54
2023/04/12 10:42:14;;;;;;;6.25;5.30;;;11.10;99.90;;;;;;5005440;28;20093;-53
2023/04/12 10:44:40;;;;;;;7.60;4.80;;;11.20;99.90;;;;;;5023153;28;20112;-55
2023/04/12 10:47:06;;;;;;;7.93;4.65;;;11.20;99.90;;;;;;5006900;28;20018;-59
2023/04/12 10:49:31;;;;;;;12.52;5.38;;;11.20;99.90;;;;;;5027008;28;20406;-50
2023/04/12 10:52:03;;;;;;;7.88;4.82;;;11.30;99.90;;;;;;5009108;28;20034;-58
2023/04/12 10:54:28;;;;;;;7.65;4.43;;;11.40;99.90;;;;;;5007645;28;20033;-55
2023/04/12 10:56:54;;;;;;;6.28;5.22;;;11.40;99.90;;;;;;5026299;28;20022;-58
2023/04/12 10:59:20;;;;;;;8.80;4.75;;;11.60;99.90;;;;;;5024667;28;20144;-58
2023/04/12 11:02:09;;;;;;;7.65;5.05;;;11.60;99.90;;;;;;5024055;28;20037;-54
2023/04/12 11:04:35;;;;;;;8.00;4.88;;;11.70;99.90;;;;;;5020756;28;20567;-60
2023/04/12 11:07:06;;;;;;;9.88;4.50;;;11.80;99.90;;;;;;5004564;28;20397;-58
2023/04/12 11:09:44;;;;;;;11.80;5.53;;;11.80;99.90;;;;;;5023424;28;20022;-54
2023/04/12 11:12:14;;;;;;;12.52;4.88;;;11.80;99.90;;;;;;5024142;28;20045;-57
2023/04/12 11:14:45;;;;;;;9.13;5.43;;;11.90;99.90;;;;;;5023825;28;20401;-53
2023/04/12 11:17:13;;;;;;;9.45;4.80;;;11.70;99.90;;;;;;5026096;28;20394;-53
2023/04/12 11:19:48;;;;;;;9.60;5.22;;;11.80;99.90;;;;;;5024079;28;20018;-54
2023/04/12 11:22:16;;;;;;;9.00;6.07;;;11.80;99.90;;;;;;5003811;28;20025;-49
2023/04/12 11:24:50;;;;;;;10.25;5.32;;;11.80;99.90;;;;;;5023775;28;20295;-52
2023/04/12 11:27:18;;;;;;;11.63;4.93;;;11.80;99.90;;;;;;5023371;28;20381;-55
2023/04/12 11:29:46;;;;;;;9.35;4.35;;;11.80;99.90;;;;;;5024073;28;20149;-55
2023/04/12 11:32:13;;;;;;;10.13;4.57;;;11.80;99.90;;;;;;5022220;28;20021;-56
2023/04/12 11:34:40;;;;;;;6.72;3.80;;;11.80;99.90;;;;;;5021237;28;20064;-54
2023/04/12 11:37:07;;;;;;;4.43;3.75;;;11.80;99.90;;;;;;5024733;28;20029;-57
2023/04/12 11:39:37;;;;;;;3.90;3.35;;;11.80;99.90;;;;;;5031779;22;20057;-53
2023/04/12 11:42:03;;;;;;;5.45;3.40;;;11.80;99.90;;;;;;5013460;28;20105;-53
2023/04/12 11:44:31;;;;;;;4.93;3.08;;;11.90;99.90;;;;;;5011891;28;20022;-55
2023/04/12 11:46:57;;;;;;;5.57;3.75;;;11.90;99.90;;;;;;5011111;28;20482;-47
2023/04/12 11:49:23;;;;;;;3.78;3.25;;;11.90;99.90;;;;;;5011620;28;20108;-52
2023/04/12 11:52:00;;;;;;;4.30;3.08;;;12.00;99.90;;;;;;5012614;28;20056;-50
2023/04/12 11:54:28;;;;;;;5.32;3.70;;;12.10;99.90;;;;;;5011957;28;20055;-48
2023/04/12 11:56:56;;;;;;;9.05;6.50;;;12.30;99.90;;;;;;5013173;28;20100;-52
2023/04/12 11:59:22;;;;;;;4.55;2.60;;;12.50;99.90;;;;;;5012270;28;20022;-49
2023/04/12 12:01:51;;;;;;;5.88;2.83;;;12.50;99.90;;;;;;4995185;28;20481;-53
2023/04/12 12:04:17;;;;;;;5.68;3.00;;;12.50;99.90;;;;;;5012518;28;20022;-58
2023/04/12 12:06:43;;;;;;;4.97;3.40;;;12.60;99.90;;;;;;4979717;28;20140;-53
2023/04/12 12:09:10;;;;;;;9.30;2.90;;;12.60;99.90;;;;;;4992529;28;20038;-56
2023/04/12 12:11:35;;;;;;;5.18;3.00;;;12.70;99.90;;;;;;4992916;28;20037;-50
2023/04/12 12:14:01;;;;;;;6.82;3.60;;;12.70;99.90;;;;;;4992545;28;20101;-55
2023/04/12 12:16:28;;;;;;;5.28;2.47;;;12.70;99.90;;;;;;4992925;28;20450;-53
2023/04/12 12:18:55;;;;;;;4.18;2.92;;;12.70;99.90;;;;;;4992611;28;20027;-52
2023/04/12 12:21:21;;;;;;;12.65;3.20;;;12.70;99.90;;;;;;5008873;28;20478;-52
2023/04/12 12:23:48;;;;;;;6.03;3.22;;;12.90;99.90;;;;;;5011757;28;20493;-54
2023/04/12 12:26:22;;;;;;;6.50;2.70;;;12.90;99.90;;;;;;4994459;28;20471;-51
2023/04/12 12:28:56;;;;;;;3.70;2.83;;;12.90;99.90;;;;;;5011799;28;20234;-50
2023/04/12 12:31:23;;;;;;;4.22;2.35;;;12.90;99.90;;;;;;5011599;28;20053;-52
2023/04/12 12:33:52;;;;;;;4.47;2.25;;;13.00;99.90;;;;;;4994296;28;20034;-50
2023/04/12 12:36:21;;;;;;;2.53;2.33;;;13.00;99.90;;;;;;5011956;28;20080;-53
2023/04/12 12:38:48;;;;;;;3.22;2.67;;;12.90;99.90;;;;;;5011621;28;20021;-50
2023/04/12 12:41:23;;;;;;;5.13;2.78;;;12.80;99.90;;;;;;4993850;28;20490;-50
2023/04/12 12:43:51;;;;;;;5.18;2.90;;;12.70;99.90;;;;;;5010801;28;20076;-51
2023/04/12 12:46:18;;;;;;;3.97;2.88;;;12.60;99.90;;;;;;5011397;28;20038;-50
2023/04/12 12:48:45;;;;;;;4.85;2.72;;;12.50;99.90;;;;;;4996619;28;20109;-53
2023/04/12 12:51:16;;;;;;;8.02;3.58;;;12.30;99.90;;;;;;5002779;28;20030;-49
2023/04/12 12:53:42;;;;;;;8.35;4.00;;;12.30;99.90;;;;;;5010201;28;20018;-52